Time;durP1;ratioP1;P1;durP2;ratioP2;P2;SDS_P1;SDS_P2;PMS_P1;PMS_P2;Temp;Humidity;BMP_temperature;BMP_pressure;BME280_temperature;BME280_humidity;BME280_pressure;Samples;Min_cycle;Max_cycle;Signal;HPM_P1;HPM_P2
2023/01/12 00:01:31;;;;;;;5.90;1.45;;;14.50;98.50;;;;;;5075178;28;20016;-68
2023/01/12 00:03:57;;;;;;;9.27;1.98;;;14.40;98.50;;;;;;5074881;28;20037;-65
2023/01/12 00:06:23;;;;;;;6.72;2.00;;;14.40;98.40;;;;;;5074946;28;20063;-64
2023/01/12 00:08:50;;;;;;;4.82;1.85;;;14.40;98.60;;;;;;5074587;28;20025;-65
2023/01/12 00:11:16;;;;;;;11.73;2.38;;;14.40;98.60;;;;;;5074357;28;20447;-65
2023/01/12 00:13:42;;;;;;;10.48;2.50;;;14.50;98.60;;;;;;5074687;28;20465;-65
2023/01/12 00:16:34;;;;;;;8.80;1.80;;;14.40;98.60;;;;;;5074800;28;20059;-66
2023/01/12 00:19:18;;;;;;;8.35;2.15;;;14.50;98.60;;;;;;5073416;28;20070;-64
2023/01/12 00:22:17;;;;;;;8.85;2.20;;;14.40;98.50;;;;;;5072205;28;20469;-64
2023/01/12 00:24:37;;;;;;;7.03;2.00;;;14.40;98.60;;;;;;5071709;28;20055;-65
2023/01/12 00:27:05;;;;;;;10.48;2.45;;;14.40;98.70;;;;;;5072721;28;20020;-64
2023/01/12 00:29:31;;;;;;;11.20;2.95;;;14.40;98.70;;;;;;5073225;28;20056;-65
2023/01/12 00:31:58;;;;;;;6.57;1.80;;;14.40;98.60;;;;;;5073627;28;20450;-64
2023/01/12 00:34:24;;;;;;;11.68;2.25;;;14.40;98.70;;;;;;5073767;28;20036;-64
2023/01/12 00:36:50;;;;;;;7.80;2.17;;;14.40;98.70;;;;;;5072688;28;20470;-67
2023/01/12 00:39:16;;;;;;;8.73;2.08;;;14.40;98.70;;;;;;5072662;28;20024;-65
2023/01/12 00:47:12;;;;;;;12.60;2.65;;;14.40;98.80;;;;;;5074288;28;20090;-65
2023/01/12 00:49:38;;;;;;;12.15;2.47;;;14.30;98.80;;;;;;5073862;28;20542;-64
2023/01/12 00:52:05;;;;;;;7.20;2.03;;;14.40;98.80;;;;;;5073769;28;20020;-65
2023/01/12 00:54:31;;;;;;;7.72;2.33;;;14.40;98.80;;;;;;5073824;28;20029;-64
2023/01/12 00:56:57;;;;;;;12.95;2.45;;;14.30;98.80;;;;;;5073864;28;20039;-64
2023/01/12 00:59:23;;;;;;;7.38;2.20;;;14.30;98.70;;;;;;5073965;28;20424;-65
2023/01/12 01:01:48;;;;;;;9.25;2.10;;;14.30;98.80;;;;;;5073659;28;20051;-63
2023/01/12 01:04:14;;;;;;;10.02;2.40;;;14.40;98.70;;;;;;5073619;28;20095;-68
2023/01/12 01:06:39;;;;;;;10.75;2.33;;;14.30;98.80;;;;;;5073539;28;20063;-70
2023/01/12 01:09:05;;;;;;;10.38;2.25;;;14.30;98.70;;;;;;5073631;28;20035;-64
2023/01/12 01:11:32;;;;;;;8.32;2.33;;;14.40;98.80;;;;;;5073548;28;20485;-64
2023/01/12 01:13:58;;;;;;;9.13;2.15;;;14.40;98.70;;;;;;5073330;28;20021;-64
2023/01/12 01:16:24;;;;;;;12.65;2.88;;;14.40;98.70;;;;;;5073534;28;20028;-64
2023/01/12 01:18:50;;;;;;;11.20;2.38;;;14.30;98.80;;;;;;5073558;28;20046;-64
2023/01/12 01:21:17;;;;;;;13.25;2.22;;;14.30;98.80;;;;;;5073328;28;20103;-64
2023/01/12 01:23:43;;;;;;;8.68;2.78;;;14.30;98.80;;;;;;5073387;28;20029;-64
2023/01/12 01:26:12;;;;;;;10.68;2.72;;;14.30;98.80;;;;;;5073310;28;20033;-64
2023/01/12 01:28:38;;;;;;;7.57;2.10;;;14.30;98.70;;;;;;5073137;28;20101;-64
2023/01/12 01:31:05;;;;;;;14.05;2.75;;;14.20;98.80;;;;;;5073258;28;20067;-63
2023/01/12 01:33:31;;;;;;;9.77;2.42;;;14.20;98.90;;;;;;5073035;28;20023;-64
2023/01/12 01:35:57;;;;;;;10.55;2.83;;;14.20;98.90;;;;;;5073139;28;20028;-65
2023/01/12 01:38:23;;;;;;;7.03;2.17;;;14.20;98.80;;;;;;5072999;28;20485;-63
2023/01/12 01:40:49;;;;;;;12.95;2.30;;;14.30;98.90;;;;;;5073115;28;20121;-63
2023/01/12 01:43:17;;;;;;;9.77;2.28;;;14.30;98.80;;;;;;5072928;28;20013;-63
2023/01/12 01:45:46;;;;;;;10.82;2.42;;;14.20;98.80;;;;;;5072907;28;20037;-64
2023/01/12 01:48:15;;;;;;;10.90;2.70;;;14.20;98.70;;;;;;5072898;28;20381;-64
2023/01/12 01:50:48;;;;;;;10.10;2.88;;;14.20;98.70;;;;;;5072934;28;20044;-64
2023/01/12 01:53:19;;;;;;;14.52;2.90;;;14.20;98.80;;;;;;5072684;28;20036;-64
2023/01/12 01:56:00;;;;;;;7.47;2.30;;;14.20;98.80;;;;;;5072874;28;20025;-65
2023/01/12 01:58:32;;;;;;;10.77;2.17;;;14.20;98.80;;;;;;5072199;28;20157;-63
2023/01/12 02:00:58;;;;;;;11.10;2.58;;;14.20;98.80;;;;;;5073209;28;20112;-64
2023/01/12 02:03:26;;;;;;;11.48;2.40;;;14.20;98.80;;;;;;5072426;28;20059;-65
2023/01/12 02:05:52;;;;;;;8.23;2.35;;;14.20;98.80;;;;;;5072660;28;20041;-64
2023/01/12 02:08:27;;;;;;;11.48;2.80;;;14.20;98.80;;;;;;5073143;28;20096;-63
2023/01/12 02:10:56;;;;;;;8.40;2.13;;;14.20;98.80;;;;;;5072979;28;20032;-64
2023/01/12 02:16:30;;;;;;;10.45;2.25;;;14.20;98.90;;;;;;5072884;28;20436;-63
2023/01/12 02:19:17;;;;;;;8.05;2.40;;;14.20;98.70;;;;;;5072059;28;20111;-65
2023/01/12 02:21:55;;;;;;;8.23;1.85;;;14.20;98.70;;;;;;5072586;28;20158;-64
2023/01/12 02:24:30;;;;;;;10.32;2.58;;;14.20;98.70;;;;;;5072425;28;20036;-63
2023/01/12 02:27:25;;;;;;;11.07;2.20;;;14.20;98.70;;;;;;5072617;28;20082;-64
2023/01/12 02:30:15;;;;;;;8.48;2.05;;;14.10;98.70;;;;;;5072282;28;20028;-64
2023/01/12 02:32:58;;;;;;;7.90;2.25;;;14.10;98.80;;;;;;5070874;28;20405;-63
2023/01/12 02:35:51;;;;;;;8.98;2.00;;;14.10;98.90;;;;;;5072409;28;20120;-64
2023/01/12 02:38:39;;;;;;;8.65;2.20;;;14.10;98.90;;;;;;5072409;28;20593;-64
2023/01/12 02:45:05;;;;;;;9.20;1.70;;;14.10;98.80;;;;;;5072119;28;20085;-64
2023/01/12 02:47:43;;;;;;;9.45;2.72;;;14.10;98.80;;;;;;5053785;28;20028;-64
2023/01/12 02:50:13;;;;;;;7.22;1.98;;;14.10;98.90;;;;;;5072091;28;20021;-72
2023/01/12 02:52:42;;;;;;;8.63;2.22;;;14.10;98.90;;;;;;5072084;28;20028;-73
2023/01/12 02:55:09;;;;;;;8.63;2.25;;;14.10;98.80;;;;;;5072234;28;20508;-70
2023/01/12 02:57:36;;;;;;;8.48;2.28;;;14.10;98.80;;;;;;5072145;28;20032;-74
2023/01/12 03:00:04;;;;;;;6.57;1.88;;;14.10;98.80;;;;;;5070875;28;20024;-64
2023/01/12 03:02:31;;;;;;;8.60;2.17;;;14.00;98.80;;;;;;5071828;28;20048;-64
2023/01/12 03:04:57;;;;;;;9.25;2.15;;;14.10;98.80;;;;;;5072085;28;20033;-64
2023/01/12 03:07:49;;;;;;;7.65;2.00;;;14.10;98.80;;;;;;5072238;28;20020;-63
2023/01/12 03:10:37;;;;;;;7.75;1.95;;;14.10;98.70;;;;;;5069506;28;20043;-64
2023/01/12 03:13:08;;;;;;;6.50;1.90;;;14.10;98.90;;;;;;5075718;28;20024;-65
2023/01/12 03:15:38;;;;;;;11.82;1.90;;;14.00;98.80;;;;;;5075824;28;20904;-66
2023/01/12 03:18:29;;;;;;;9.13;2.35;;;14.00;98.80;;;;;;5076045;28;20064;-63
2023/01/12 03:21:01;;;;;;;7.68;2.28;;;14.10;98.70;;;;;;5075817;28;20062;-63
2023/01/12 03:23:56;;;;;;;12.52;2.47;;;14.00;98.80;;;;;;5075765;28;20023;-64
2023/01/12 03:26:26;;;;;;;11.00;2.25;;;14.00;98.90;;;;;;5061929;28;20533;-64
2023/01/12 03:28:59;;;;;;;7.32;1.75;;;14.00;98.90;;;;;;5075098;28;20038;-64
2023/01/12 03:31:25;;;;;;;6.30;1.77;;;14.00;99.00;;;;;;5074725;28;20445;-65
2023/01/12 03:33:51;;;;;;;7.95;2.13;;;14.00;98.90;;;;;;5075425;28;20063;-64
2023/01/12 03:36:57;;;;;;;6.35;1.70;;;14.00;98.90;;;;;;5075276;28;20056;-64
2023/01/12 03:39:46;;;;;;;7.68;1.88;;;14.00;98.90;;;;;;5073373;28;20032;-64
2023/01/12 03:42:45;;;;;;;8.13;1.80;;;14.00;98.90;;;;;;5075447;28;20478;-64
2023/01/12 03:45:40;;;;;;;12.38;2.63;;;14.00;98.90;;;;;;5075086;28;20067;-64
2023/01/12 03:48:39;;;;;;;6.53;1.52;;;13.90;98.90;;;;;;5075800;28;20024;-64
2023/01/12 03:51:21;;;;;;;7.72;1.92;;;14.00;99.00;;;;;;5075251;28;20027;-65
2023/01/12 03:53:48;;;;;;;6.85;2.00;;;14.00;99.00;;;;;;5075088;28;20029;-64
2023/01/12 03:56:16;;;;;;;9.23;2.15;;;13.90;99.00;;;;;;5075102;28;20052;-65
2023/01/12 03:58:42;;;;;;;9.63;2.22;;;13.90;99.00;;;;;;5074930;28;20020;-65
2023/01/12 04:01:08;;;;;;;8.05;1.65;;;13.90;99.00;;;;;;5074701;28;20043;-65
2023/01/12 04:03:33;;;;;;;6.18;2.17;;;13.90;99.00;;;;;;5075228;28;20067;-63
2023/01/12 04:05:59;;;;;;;6.30;1.85;;;13.90;99.00;;;;;;5072589;28;20032;-63
2023/01/12 04:08:24;;;;;;;8.23;1.83;;;13.90;99.00;;;;;;5068766;28;20074;-64
2023/01/12 04:10:50;;;;;;;9.75;2.35;;;13.90;99.00;;;;;;5055845;28;20108;-64
2023/01/12 04:13:15;;;;;;;6.80;1.52;;;13.90;99.10;;;;;;5051844;28;20104;-64
2023/01/12 04:15:41;;;;;;;7.55;1.75;;;13.90;99.10;;;;;;5053657;28;20024;-63
2023/01/12 04:18:10;;;;;;;8.00;2.38;;;13.90;99.10;;;;;;5054442;28;20113;-64
2023/01/12 04:20:37;;;;;;;8.45;2.10;;;13.90;99.00;;;;;;5054778;28;20057;-64
2023/01/12 04:23:02;;;;;;;9.57;2.10;;;13.90;99.10;;;;;;5053868;28;20033;-63
2023/01/12 04:25:28;;;;;;;9.27;2.10;;;13.90;99.00;;;;;;5054646;28;20079;-64
2023/01/12 04:27:59;;;;;;;7.60;2.00;;;13.90;99.10;;;;;;5054171;28;20377;-63
2023/01/12 04:30:26;;;;;;;7.10;1.70;;;13.90;99.00;;;;;;5054531;28;20040;-64
2023/01/12 04:32:53;;;;;;;9.18;2.05;;;13.90;99.00;;;;;;5054309;28;20045;-63
2023/01/12 04:35:18;;;;;;;8.30;2.20;;;13.90;99.10;;;;;;5054524;28;20025;-63
2023/01/12 04:37:45;;;;;;;9.82;2.22;;;13.90;99.00;;;;;;5053978;28;20029;-63
2023/01/12 04:40:12;;;;;;;5.80;1.40;;;13.90;99.10;;;;;;5054532;28;20025;-63
2023/01/12 04:43:05;;;;;;;10.57;2.40;;;13.90;99.10;;;;;;5053821;28;20035;-65
2023/01/12 04:45:33;;;;;;;8.15;1.95;;;13.90;99.30;;;;;;5054051;28;20474;-64
2023/01/12 04:48:04;;;;;;;6.00;1.73;;;13.90;99.00;;;;;;5053931;28;20025;-63
2023/01/12 04:50:30;;;;;;;6.40;1.55;;;13.90;99.00;;;;;;5053971;28;20025;-63
2023/01/12 04:52:56;;;;;;;5.88;1.80;;;13.90;99.00;;;;;;5054048;28;20049;-63
2023/01/12 04:55:22;;;;;;;9.27;2.10;;;13.80;99.10;;;;;;5054136;28;20083;-63
2023/01/12 04:57:47;;;;;;;7.28;1.60;;;13.90;99.10;;;;;;5053548;28;20029;-62
2023/01/12 05:00:13;;;;;;;7.65;1.77;;;13.90;99.00;;;;;;5054029;28;20576;-64
2023/01/12 05:02:38;;;;;;;6.75;2.00;;;13.90;99.10;;;;;;5054028;28;20021;-63
2023/01/12 05:05:05;;;;;;;8.70;2.10;;;13.80;99.00;;;;;;5053801;28;20040;-63
2023/01/12 05:07:31;;;;;;;9.18;2.03;;;13.80;99.20;;;;;;5053628;28;20017;-63
2023/01/12 05:12:40;;;;;;;7.88;1.63;;;13.80;99.20;;;;;;5053301;28;20036;-63
2023/01/12 05:15:06;;;;;;;7.57;1.67;;;13.80;99.30;;;;;;5053574;28;20418;-64
2023/01/12 05:17:32;;;;;;;6.10;1.50;;;13.70;99.30;;;;;;5053499;28;20025;-63
2023/01/12 05:19:57;;;;;;;5.20;1.40;;;13.70;99.40;;;;;;5053452;28;20029;-63
2023/01/12 05:22:23;;;;;;;5.78;1.25;;;13.70;99.00;;;;;;5053225;28;20029;-63
2023/01/12 05:24:48;;;;;;;5.38;1.50;;;13.70;99.00;;;;;;5053361;28;20087;-63
2023/01/12 05:27:14;;;;;;;7.05;1.50;;;13.70;99.20;;;;;;5053123;28;20044;-65
2023/01/12 05:29:40;;;;;;;8.70;2.00;;;13.70;99.20;;;;;;5053239;28;20025;-64
2023/01/12 05:32:05;;;;;;;8.55;1.65;;;13.70;99.20;;;;;;5053551;28;20470;-64
2023/01/12 05:34:31;;;;;;;6.40;1.38;;;13.70;99.20;;;;;;5052480;28;20029;-70
2023/01/12 05:36:56;;;;;;;5.93;1.35;;;13.70;99.10;;;;;;5053033;28;20032;-66
2023/01/12 05:39:22;;;;;;;5.45;1.55;;;13.70;99.20;;;;;;5053147;28;20106;-64
2023/01/12 05:44:31;;;;;;;6.50;1.27;;;13.70;99.10;;;;;;5053122;28;20106;-63
2023/01/12 05:46:57;;;;;;;6.28;1.42;;;13.70;99.40;;;;;;5053032;28;20024;-63
2023/01/12 05:49:22;;;;;;;6.75;1.60;;;13.70;99.40;;;;;;5052854;28;20111;-63
2023/01/12 05:51:48;;;;;;;5.80;1.05;;;13.70;99.20;;;;;;5052913;28;20025;-63
2023/01/12 05:54:13;;;;;;;6.82;1.13;;;13.70;99.20;;;;;;5053026;28;20028;-62
2023/01/12 05:56:39;;;;;;;6.43;1.60;;;13.70;99.20;;;;;;5052808;28;20525;-63
2023/01/12 05:59:04;;;;;;;7.88;1.58;;;13.70;99.20;;;;;;5052795;28;20013;-62
2023/01/12 06:01:31;;;;;;;5.15;1.17;;;13.70;99.30;;;;;;5057744;28;20432;-63
2023/01/12 06:03:59;;;;;;;4.80;1.27;;;13.70;99.40;;;;;;5058075;28;20080;-63
2023/01/12 06:06:29;;;;;;;5.97;1.38;;;13.70;99.20;;;;;;5051266;28;20083;-63
2023/01/12 06:08:55;;;;;;;3.15;0.70;;;13.70;99.30;;;;;;5051063;28;20103;-67
2023/01/12 06:14:05;;;;;;;6.95;1.23;;;13.70;99.40;;;;;;5052717;28;20032;-64
2023/01/12 06:16:31;;;;;;;4.45;1.15;;;13.70;99.50;;;;;;5052658;28;20017;-63
2023/01/12 06:18:56;;;;;;;6.72;1.08;;;13.70;99.30;;;;;;5052630;28;20474;-65
2023/01/12 06:21:23;;;;;;;2.90;0.88;;;13.70;99.30;;;;;;5052608;28;20029;-63
2023/01/12 06:23:49;;;;;;;4.82;1.23;;;13.70;99.50;;;;;;5068278;28;20028;-70
2023/01/12 06:26:14;;;;;;;5.85;0.80;;;13.70;99.50;;;;;;5059008;28;20056;-62
2023/01/12 06:28:41;;;;;;;5.10;0.93;;;13.70;99.60;;;;;;5060480;28;20062;-65
2023/01/12 06:31:09;;;;;;;3.33;0.90;;;13.60;99.50;;;;;;5057084;28;21215;-67
2023/01/12 06:33:35;;;;;;;5.45;0.82;;;13.60;99.50;;;;;;5060674;28;20027;-62
2023/01/12 06:36:01;;;;;;;7.75;1.33;;;13.60;99.50;;;;;;5070557;28;20032;-66
2023/01/12 06:38:29;;;;;;;3.75;0.98;;;13.60;99.50;;;;;;5065747;28;20037;-64
2023/01/12 06:40:57;;;;;;;6.30;1.20;;;13.60;99.60;;;;;;5069026;28;20095;-65
2023/01/12 06:43:23;;;;;;;5.68;1.23;;;13.60;99.60;;;;;;5071324;28;20024;-66
2023/01/12 06:45:53;;;;;;;4.15;0.80;;;13.60;99.60;;;;;;5062714;28;20032;-65
2023/01/12 06:48:21;;;;;;;5.70;1.15;;;13.60;99.60;;;;;;5073299;28;20021;-68
2023/01/12 06:50:47;;;;;;;5.25;1.13;;;13.60;99.80;;;;;;5071823;28;20020;-62
2023/01/12 06:53:12;;;;;;;3.40;0.80;;;13.60;99.80;;;;;;5074242;28;20032;-63
2023/01/12 06:55:38;;;;;;;6.38;1.77;;;13.60;99.70;;;;;;5074621;28;20033;-63
2023/01/12 06:58:03;;;;;;;7.13;1.38;;;13.60;99.80;;;;;;5069816;28;20077;-65
2023/01/12 07:00:30;;;;;;;12.43;1.77;;;13.60;99.90;;;;;;5071716;28;20492;-63
2023/01/12 07:02:56;;;;;;;8.68;1.52;;;13.60;99.90;;;;;;5069553;28;20431;-67
2023/01/12 07:05:21;;;;;;;7.57;1.55;;;13.70;99.90;;;;;;5067181;28;20481;-64
2023/01/12 07:07:47;;;;;;;5.10;1.23;;;13.70;99.90;;;;;;5074194;28;20233;-67
2023/01/12 07:10:13;;;;;;;10.93;1.55;;;13.70;99.90;;;;;;5072927;28;20473;-61
2023/01/12 07:12:38;;;;;;;21.63;2.25;;;13.70;99.90;;;;;;5072094;28;20032;-68
2023/01/12 07:15:05;;;;;;;18.70;2.05;;;13.80;99.90;;;;;;5064509;28;20079;-66
2023/01/12 07:17:31;;;;;;;9.35;2.03;;;13.70;99.90;;;;;;5073955;28;20074;-76
2023/01/12 07:19:56;;;;;;;45.28;4.57;;;13.70;99.90;;;;;;5072759;28;20486;-75
2023/01/12 07:22:22;;;;;;;17.50;2.67;;;13.70;99.90;;;;;;5076134;28;20028;-60
2023/01/12 07:24:48;;;;;;;19.65;2.00;;;13.60;99.90;;;;;;5079459;28;20126;-60
2023/01/12 07:27:13;;;;;;;12.20;1.65;;;13.70;99.90;;;;;;5077418;28;20392;-60
2023/01/12 07:29:39;;;;;;;20.90;2.58;;;13.70;99.90;;;;;;5078464;28;20023;-61
2023/01/12 07:32:04;;;;;;;12.50;2.13;;;13.70;99.90;;;;;;5078898;28;20073;-62
2023/01/12 07:34:30;;;;;;;12.30;1.77;;;13.70;99.90;;;;;;5079322;28;20028;-59
2023/01/12 07:36:56;;;;;;;5.22;1.42;;;13.70;99.90;;;;;;5078404;28;20020;-60
2023/01/12 07:39:21;;;;;;;11.07;2.25;;;13.60;99.90;;;;;;5080371;28;20530;-61
2023/01/12 07:44:31;;;;;;;9.90;1.85;;;13.50;99.90;;;;;;5070000;28;20044;-69
2023/01/12 07:46:58;;;;;;;11.73;2.00;;;13.50;99.90;;;;;;5071677;28;20385;-60
2023/01/12 07:49:24;;;;;;;8.15;1.48;;;13.50;99.90;;;;;;5070255;28;20029;-67
2023/01/12 07:51:54;;;;;;;10.07;1.90;;;13.50;99.90;;;;;;5066939;28;20033;-64
2023/01/12 07:54:20;;;;;;;9.80;1.98;;;13.50;99.90;;;;;;5059586;28;20041;-60
2023/01/12 07:56:46;;;;;;;9.65;2.15;;;13.50;99.90;;;;;;5073722;28;20032;-61
2023/01/12 07:59:11;;;;;;;5.63;1.42;;;13.50;99.90;;;;;;5074080;28;20108;-60
2023/01/12 08:01:38;;;;;;;8.35;1.52;;;13.60;99.90;;;;;;5072013;28;20024;-72
2023/01/12 08:04:04;;;;;;;6.07;1.33;;;13.50;99.90;;;;;;5073801;28;20036;-58
2023/01/12 08:06:30;;;;;;;6.90;1.17;;;13.50;99.90;;;;;;5071728;28;20089;-62
2023/01/12 08:08:55;;;;;;;5.60;0.95;;;13.60;99.90;;;;;;5075597;28;20059;-61
2023/01/12 08:11:21;;;;;;;5.32;1.20;;;13.60;99.90;;;;;;5075267;28;20485;-61
2023/01/12 08:13:51;;;;;;;9.45;1.55;;;13.60;99.90;;;;;;5071784;28;20067;-63
2023/01/12 08:16:21;;;;;;;17.77;3.53;;;13.50;99.90;;;;;;5073803;28;20579;-60
2023/01/12 08:19:01;;;;;;;12.60;2.08;;;13.50;99.90;;;;;;5074207;28;20171;-63
2023/01/12 08:21:32;;;;;;;13.07;2.55;;;13.40;99.90;;;;;;5054124;28;20033;-59
2023/01/12 08:24:00;;;;;;;12.85;2.28;;;13.40;99.90;;;;;;5054686;28;20037;-59
2023/01/12 08:26:37;;;;;;;8.00;1.80;;;13.40;99.90;;;;;;5058625;28;20111;-64
2023/01/12 08:29:31;;;;;;;6.63;1.77;;;13.40;99.90;;;;;;5068141;28;20046;-64
2023/01/12 08:32:03;;;;;;;8.20;1.40;;;13.30;99.90;;;;;;5074047;28;20630;-59
2023/01/12 08:34:30;;;;;;;5.90;1.35;;;13.30;99.90;;;;;;5068772;28;20105;-59
2023/01/12 08:36:59;;;;;;;6.18;1.40;;;13.30;99.90;;;;;;5074669;28;20175;-61
2023/01/12 08:39:28;;;;;;;6.82;1.23;;;13.20;99.90;;;;;;5077906;28;20058;-61
2023/01/12 08:41:53;;;;;;;6.10;1.60;;;13.30;99.90;;;;;;5073090;28;20466;-59
2023/01/12 08:44:20;;;;;;;9.98;1.77;;;13.20;99.90;;;;;;5073106;28;20115;-60
2023/01/12 08:46:48;;;;;;;4.93;1.40;;;13.30;99.90;;;;;;5073871;28;20485;-68
2023/01/12 08:49:15;;;;;;;11.65;1.50;;;13.20;99.90;;;;;;5073927;28;20520;-60
2023/01/12 08:51:41;;;;;;;12.00;2.03;;;13.20;99.90;;;;;;5072037;28;20070;-63
2023/01/12 08:54:08;;;;;;;15.25;1.48;;;13.30;99.90;;;;;;5073285;28;20025;-59
2023/01/12 08:56:35;;;;;;;5.80;1.23;;;13.30;99.90;;;;;;5071172;28;20039;-60
2023/01/12 08:59:01;;;;;;;7.15;1.52;;;13.30;99.90;;;;;;5072617;28;20048;-60
2023/01/12 09:01:26;;;;;;;8.85;1.55;;;13.30;99.90;;;;;;5073571;28;20490;-65
2023/01/12 09:03:54;;;;;;;12.32;1.88;;;13.30;99.90;;;;;;5072453;28;20116;-69
2023/01/12 09:06:25;;;;;;;4.18;1.00;;;13.30;99.90;;;;;;5072775;28;20059;-61
2023/01/12 09:08:58;;;;;;;5.20;1.13;;;13.30;99.90;;;;;;5071710;28;20043;-66
2023/01/12 09:11:26;;;;;;;7.95;1.65;;;13.30;99.90;;;;;;5068696;28;20020;-65
2023/01/12 09:13:51;;;;;;;9.32;0.93;;;13.30;99.90;;;;;;5072274;28;20012;-63
2023/01/12 09:16:18;;;;;;;5.68;1.20;;;13.30;99.90;;;;;;5069661;28;20051;-72
2023/01/12 09:18:45;;;;;;;5.43;1.73;;;13.30;99.90;;;;;;5070590;28;20035;-62
2023/01/12 09:21:16;;;;;;;10.75;1.40;;;13.30;99.90;;;;;;5072811;28;20103;-63
2023/01/12 09:23:42;;;;;;;9.27;1.40;;;13.30;99.90;;;;;;5072686;28;20781;-61
2023/01/12 09:26:13;;;;;;;8.50;1.02;;;13.40;99.90;;;;;;5070676;28;20394;-60
2023/01/12 09:28:39;;;;;;;9.82;1.70;;;13.40;99.90;;;;;;5057911;28;20033;-60
2023/01/12 09:31:09;;;;;;;9.52;1.05;;;13.50;99.90;;;;;;5067053;28;20120;-59
2023/01/12 09:33:36;;;;;;;13.65;1.52;;;13.50;99.90;;;;;;5065425;28;20086;-65
2023/01/12 09:36:10;;;;;;;10.02;1.00;;;13.50;99.90;;;;;;5061315;28;20028;-62
2023/01/12 09:38:38;;;;;;;4.40;0.80;;;13.60;99.90;;;;;;5071491;28;20085;-62
2023/01/12 09:41:17;;;;;;;6.00;0.75;;;13.60;99.90;;;;;;5063603;28;20017;-61
2023/01/12 09:49:21;;;;;;;4.95;1.10;;;13.70;99.90;;;;;;5062313;28;20039;-72
2023/01/12 09:51:56;;;;;;;7.95;1.15;;;13.70;99.90;;;;;;5067151;28;20020;-71
2023/01/12 09:54:22;;;;;;;5.30;1.40;;;13.70;99.90;;;;;;5070747;28;20358;-61
2023/01/12 09:57:00;;;;;;;9.05;1.15;;;13.70;99.90;;;;;;5073026;28;20025;-60
2023/01/12 09:59:50;;;;;;;6.05;0.95;;;13.70;99.90;;;;;;5072485;28;20025;-60
2023/01/12 10:02:16;;;;;;;5.68;0.98;;;13.70;99.90;;;;;;5072182;28;20070;-63
2023/01/12 10:04:42;;;;;;;4.80;0.47;;;13.70;99.90;;;;;;5070891;28;20025;-61
2023/01/12 10:07:13;;;;;;;3.97;0.88;;;13.70;99.90;;;;;;5072764;28;20051;-63
2023/01/12 10:09:40;;;;;;;2.70;0.32;;;13.70;99.90;;;;;;5072819;28;20020;-60
2023/01/12 10:12:18;;;;;;;3.75;0.52;;;13.70;99.90;;;;;;5072821;28;20039;-60
2023/01/12 10:15:05;;;;;;;3.03;0.40;;;13.70;99.90;;;;;;5072238;28;20052;-62
2023/01/12 10:17:40;;;;;;;3.85;0.68;;;13.70;99.90;;;;;;5072280;28;20070;-65
2023/01/12 10:20:26;;;;;;;3.22;0.82;;;13.70;99.90;;;;;;5071821;28;20029;-60
2023/01/12 10:23:17;;;;;;;5.60;0.82;;;13.70;99.90;;;;;;5072420;28;20031;-60
2023/01/12 10:25:48;;;;;;;5.70;0.57;;;13.70;99.90;;;;;;5072072;28;20044;-61
2023/01/12 10:28:20;;;;;;;5.47;0.95;;;13.70;99.90;;;;;;5072534;28;20350;-62
2023/01/12 10:30:46;;;;;;;5.75;0.90;;;13.70;99.90;;;;;;5058329;28;20056;-61
2023/01/12 10:33:15;;;;;;;8.88;1.23;;;13.80;99.90;;;;;;5072291;28;20085;-61
2023/01/12 10:35:59;;;;;;;4.47;0.95;;;13.80;99.90;;;;;;5071974;28;20021;-62
2023/01/12 10:38:34;;;;;;;4.13;1.15;;;13.80;99.90;;;;;;5072273;28;20082;-62
2023/01/12 10:41:09;;;;;;;10.02;1.20;;;13.80;99.90;;;;;;5058651;28;20024;-61
2023/01/12 10:43:36;;;;;;;7.88;1.50;;;13.80;99.90;;;;;;5072257;28;20025;-62
2023/01/12 10:46:10;;;;;;;4.82;1.13;;;13.80;99.90;;;;;;5071900;28;20114;-61
2023/01/12 10:48:41;;;;;;;3.70;1.08;;;13.80;99.90;;;;;;5066651;28;20021;-62
2023/01/12 10:51:20;;;;;;;7.60;1.13;;;13.80;99.90;;;;;;5069608;28;20489;-64
2023/01/12 10:54:00;;;;;;;6.85;1.13;;;13.80;99.90;;;;;;5059800;28;20482;-73
2023/01/12 10:56:51;;;;;;;8.43;1.70;;;13.90;99.90;;;;;;5066169;28;20039;-65
2023/01/12 10:59:20;;;;;;;7.63;1.50;;;13.90;99.90;;;;;;5067464;28;20119;-61
2023/01/12 11:02:10;;;;;;;12.02;1.85;;;13.90;99.90;;;;;;5071306;28;20013;-62
2023/01/12 11:04:40;;;;;;;10.02;1.83;;;13.90;99.90;;;;;;5071712;28;20131;-65
2023/01/12 11:07:13;;;;;;;8.55;1.25;;;13.90;99.90;;;;;;5070373;28;20028;-66
2023/01/12 11:09:40;;;;;;;8.55;1.40;;;14.00;99.90;;;;;;5067066;28;20037;-61
2023/01/12 11:12:17;;;;;;;5.50;1.00;;;14.00;99.90;;;;;;5071775;28;20025;-64
2023/01/12 11:14:55;;;;;;;10.05;1.15;;;14.00;99.90;;;;;;5066690;28;20028;-65
2023/01/12 11:20:38;;;;;;;7.22;0.98;;;14.00;99.90;;;;;;5068340;28;20498;-69
2023/01/12 11:23:13;;;;;;;4.20;1.00;;;14.00;99.90;;;;;;5064528;28;20120;-72
2023/01/12 11:25:43;;;;;;;6.75;0.93;;;14.00;99.90;;;;;;5069782;28;20037;-62
2023/01/12 11:28:23;;;;;;;6.20;1.08;;;14.00;99.90;;;;;;5071691;28;20025;-69
2023/01/12 11:30:59;;;;;;;11.02;1.35;;;14.10;99.90;;;;;;5060500;28;20036;-69
2023/01/12 11:33:46;;;;;;;5.90;0.93;;;14.10;99.90;;;;;;5074059;28;20039;-68
2023/01/12 11:36:34;;;;;;;6.28;0.90;;;14.00;99.90;;;;;;5070043;28;20047;-74
2023/01/12 11:39:07;;;;;;;6.28;1.02;;;14.10;99.90;;;;;;5073215;28;20115;-71
2023/01/12 11:41:36;;;;;;;;;;;14.10;99.90;;;;;;5070615;28;20021;-73
2023/01/12 11:44:04;;;;;;;3.08;0.85;;;14.00;99.90;;;;;;5066011;28;19908;-73
2023/01/12 11:46:41;;;;;;;6.13;1.17;;;14.00;99.90;;;;;;5059922;28;20055;-66
2023/01/12 11:49:22;;;;;;;5.00;0.95;;;14.00;99.90;;;;;;5063329;28;20568;-64
2023/01/12 11:51:54;;;;;;;5.28;0.90;;;14.10;99.90;;;;;;5059505;28;20025;-69
2023/01/12 11:54:20;;;;;;;;;;;14.10;99.90;;;;;;5054555;28;20053;-74
2023/01/12 11:57:13;;;;;;;9.05;0.88;;;14.10;99.90;;;;;;5063072;28;19955;-70
2023/01/12 11:59:50;;;;;;;5.20;1.20;;;14.10;99.90;;;;;;5068696;28;20478;-62
2023/01/12 12:02:36;;;;;;;3.47;0.82;;;14.10;99.90;;;;;;5054463;28;20052;-72
2023/01/12 12:05:24;;;;;;;3.58;0.57;;;14.20;99.90;;;;;;5061846;28;20025;-69
2023/01/12 12:08:17;;;;;;;3.22;0.65;;;14.20;99.90;;;;;;5054498;28;20037;-73
2023/01/12 12:10:59;;;;;;;3.33;0.68;;;14.20;99.90;;;;;;5065074;28;20028;-73
2023/01/12 12:13:29;;;;;;;;;;;14.20;99.90;;;;;;5069560;28;20021;-73
2023/01/12 12:16:07;;;;;;;4.97;0.47;;;14.10;99.90;;;;;;5070407;28;19952;-72
2023/01/12 12:18:35;;;;;;;8.52;0.40;;;14.10;99.90;;;;;;5066748;28;20048;-67
2023/01/12 12:21:32;;;;;;;3.92;0.40;;;14.20;99.90;;;;;;5069961;28;20568;-76
2023/01/12 12:24:21;;;;;;;3.53;0.68;;;14.20;99.90;;;;;;5056526;28;20482;-75
2023/01/12 12:27:09;;;;;;;2.45;0.65;;;14.30;99.90;;;;;;5064632;28;20029;-74
2023/01/12 12:30:08;;;;;;;1.45;0.35;;;14.30;99.90;;;;;;5053607;28;20024;-72
2023/01/12 12:32:49;;;;;;;3.83;0.40;;;14.40;99.90;;;;;;5062416;28;20139;-74
2023/01/12 12:35:22;;;;;;;1.80;0.30;;;14.40;99.90;;;;;;5054150;28;20045;-73
2023/01/12 12:38:23;;;;;;;4.90;0.60;;;14.40;99.90;;;;;;5056552;28;20797;-69
2023/01/12 12:47:49;;;;;;;4.57;0.32;;;14.40;99.90;;;;;;5060103;28;20060;-69
2023/01/12 12:50:19;;;;;;;1.20;0.20;;;14.40;99.90;;;;;;5061079;28;20028;-60
2023/01/12 12:52:51;;;;;;;1.45;0.25;;;14.40;99.90;;;;;;5062996;28;20098;-60
2023/01/12 12:55:17;;;;;;;2.65;0.32;;;14.40;99.90;;;;;;5068346;28;20462;-65
2023/01/12 12:58:00;;;;;;;2.08;0.35;;;14.40;99.90;;;;;;5063076;28;20021;-73
2023/01/12 13:00:41;;;;;;;3.45;0.50;;;14.50;99.90;;;;;;5065459;28;20028;-59
2023/01/12 13:03:07;;;;;;;3.20;0.40;;;14.50;99.90;;;;;;5069611;28;20051;-66
2023/01/12 13:05:45;;;;;;;1.67;0.38;;;14.50;99.90;;;;;;5065907;28;20509;-69
2023/01/12 13:08:33;;;;;;;5.85;0.70;;;14.50;99.90;;;;;;5070805;28;20385;-67
2023/01/12 13:10:59;;;;;;;5.45;0.22;;;14.50;99.90;;;;;;5072907;28;20036;-62
2023/01/12 13:13:26;;;;;;;3.38;0.47;;;14.40;99.90;;;;;;5073579;28;20534;-64
2023/01/12 13:16:17;;;;;;;2.53;0.30;;;14.40;99.90;;;;;;5072976;28;20019;-63
2023/01/12 13:18:52;;;;;;;5.30;0.32;;;14.50;99.90;;;;;;5073006;28;20161;-73
2023/01/12 13:21:30;;;;;;;2.80;0.35;;;14.50;99.90;;;;;;5072697;28;20046;-71
2023/01/12 13:24:08;;;;;;;1.38;0.38;;;14.50;99.90;;;;;;5073535;28;20035;-68
2023/01/12 13:26:33;;;;;;;3.80;0.40;;;14.50;99.90;;;;;;5067560;28;20094;-75
2023/01/12 13:29:27;;;;;;;1.45;0.30;;;14.40;99.90;;;;;;5052740;28;20421;-71
2023/01/12 13:31:58;;;;;;;1.17;0.32;;;14.50;99.90;;;;;;5053074;28;20512;-71
2023/01/12 13:34:30;;;;;;;3.60;0.30;;;14.50;99.90;;;;;;5053602;28;20027;-68
2023/01/12 13:37:21;;;;;;;1.42;0.50;;;14.50;99.90;;;;;;5052589;28;20025;-71
2023/01/12 13:40:17;;;;;;;1.77;0.10;;;14.50;99.90;;;;;;5051059;28;20025;-69
2023/01/12 13:45:29;;;;;;;2.40;0.30;;;14.50;99.90;;;;;;5053092;28;20055;-70
2023/01/12 13:47:55;;;;;;;0.73;0.13;;;14.50;99.90;;;;;;5053171;28;20025;-72
2023/01/12 13:50:24;;;;;;;1.55;0.20;;;14.50;99.90;;;;;;5067577;28;20127;-71